sensor_id;sensor_type;location;lat;lon;timestamp;P1;durP1;ratioP1;P2;durP2;ratioP2
40588;SDS011;26297;49.450;6.640;2022-10-23T04:01:46;3.85;;;2.30;;
40588;SDS011;26297;49.450;6.640;2022-10-23T04:04:50;3.70;;;2.10;;
40588;SDS011;26297;49.450;6.640;2022-10-23T04:07:52;3.58;;;2.65;;
40588;SDS011;26297;49.450;6.640;2022-10-23T04:10:56;2.38;;;2.05;;
40588;SDS011;26297;49.450;6.640;2022-10-23T04:13:59;2.65;;;2.45;;
40588;SDS011;26297;49.450;6.640;2022-10-23T04:17:02;2.70;;;2.00;;
40588;SDS011;26297;49.450;6.640;2022-10-23T04:20:06;5.70;;;3.03;;
40588;SDS011;26297;49.450;6.640;2022-10-23T04:23:09;2.53;;;2.33;;
40588;SDS011;26297;49.450;6.640;2022-10-23T04:26:13;3.50;;;2.30;;
40588;SDS011;26297;49.450;6.640;2022-10-23T04:29:17;2.38;;;1.98;;
40588;SDS011;26297;49.450;6.640;2022-10-23T04:32:22;2.53;;;2.33;;
40588;SDS011;26297;49.450;6.640;2022-10-23T04:35:26;3.00;;;1.90;;
40588;SDS011;26297;49.450;6.640;2022-10-23T04:38:29;2.38;;;2.17;;
40588;SDS011;26297;49.450;6.640;2022-10-23T04:41:32;3.72;;;1.90;;
40588;SDS011;26297;49.450;6.640;2022-10-23T04:44:36;4.35;;;2.60;;
40588;SDS011;26297;49.450;6.640;2022-10-23T04:47:39;3.97;;;3.15;;
40588;SDS011;26297;49.450;6.640;2022-10-23T04:50:42;2.83;;;2.50;;
40588;SDS011;26297;49.450;6.640;2022-10-23T04:53:46;2.78;;;2.15;;
40588;SDS011;26297;49.450;6.640;2022-10-23T04:56:48;2.30;;;2.10;;
40588;SDS011;26297;49.450;6.640;2022-10-23T04:59:52;2.47;;;2.22;;
40588;SDS011;26297;49.450;6.640;2022-10-23T05:02:56;3.50;;;2.30;;
40588;SDS011;26297;49.450;6.640;2022-10-23T05:05:59;2.50;;;2.30;;
40588;SDS011;26297;49.450;6.640;2022-10-23T05:09:02;4.05;;;2.30;;
40588;SDS011;26297;49.450;6.640;2022-10-23T05:12:05;2.70;;;2.50;;
40588;SDS011;26297;49.450;6.640;2022-10-23T05:15:08;2.95;;;2.20;;
40588;SDS011;26297;49.450;6.640;2022-10-23T05:18:13;4.07;;;2.25;;
40588;SDS011;26297;49.450;6.640;2022-10-23T05:21:38;2.17;;;1.98;;
40588;SDS011;26297;49.450;6.640;2022-10-23T05:24:42;5.57;;;1.98;;
40588;SDS011;26297;49.450;6.640;2022-10-23T05:27:47;3.28;;;1.98;;
40588;SDS011;26297;49.450;6.640;2022-10-23T05:30:51;3.22;;;1.95;;
40588;SDS011;26297;49.450;6.640;2022-10-23T05:33:54;1.83;;;1.73;;
40588;SDS011;26297;49.450;6.640;2022-10-23T05:36:58;2.30;;;2.10;;
40588;SDS011;26297;49.450;6.640;2022-10-23T05:40:03;3.25;;;2.05;;
40588;SDS011;26297;49.450;6.640;2022-10-23T05:43:07;2.38;;;2.17;;
40588;SDS011;26297;49.450;6.640;2022-10-23T05:46:11;2.35;;;2.15;;
40588;SDS011;26297;49.450;6.640;2022-10-23T05:49:14;2.22;;;1.98;;
40588;SDS011;26297;49.450;6.640;2022-10-23T05:52:18;1.63;;;1.38;;
40588;SDS011;26297;49.450;6.640;2022-10-23T05:55:22;1.23;;;1.20;;
40588;SDS011;26297;49.450;6.640;2022-10-23T05:58:27;2.47;;;2.10;;
40588;SDS011;26297;49.450;6.640;2022-10-23T06:01:30;6.07;;;1.40;;
40588;SDS011;26297;49.450;6.640;2022-10-23T06:04:37;1.60;;;1.30;;
40588;SDS011;26297;49.450;6.640;2022-10-23T06:07:42;3.38;;;1.88;;
40588;SDS011;26297;49.450;6.640;2022-10-23T06:10:46;1.90;;;1.70;;
40588;SDS011;26297;49.450;6.640;2022-10-23T06:13:49;1.67;;;1.58;;
40588;SDS011;26297;49.450;6.640;2022-10-23T06:16:53;2.33;;;1.73;;
40588;SDS011;26297;49.450;6.640;2022-10-23T06:19:57;2.50;;;2.17;;
40588;SDS011;26297;49.450;6.640;2022-10-23T06:23:04;2.60;;;2.40;;
40588;SDS011;26297;49.450;6.640;2022-10-23T06:26:10;3.13;;;2.17;;
40588;SDS011;26297;49.450;6.640;2022-10-23T06:29:15;2.50;;;2.20;;
40588;SDS011;26297;49.450;6.640;2022-10-23T06:32:19;2.45;;;2.25;;
40588;SDS011;26297;49.450;6.640;2022-10-23T06:35:23;2.33;;;2.03;;
40588;SDS011;26297;49.450;6.640;2022-10-23T06:38:26;2.92;;;2.10;;
40588;SDS011;26297;49.450;6.640;2022-10-23T06:41:30;1.98;;;1.83;;
40588;SDS011;26297;49.450;6.640;2022-10-23T06:44:36;2.70;;;2.50;;
40588;SDS011;26297;49.450;6.640;2022-10-23T06:47:41;3.10;;;2.35;;
40588;SDS011;26297;49.450;6.640;2022-10-23T06:54:10;4.50;;;2.17;;
40588;SDS011;26297;49.450;6.640;2022-10-23T06:57:14;2.75;;;2.33;;
40588;SDS011;26297;49.450;6.640;2022-10-23T07:00:16;1.80;;;1.70;;
40588;SDS011;26297;49.450;6.640;2022-10-23T07:03:19;2.38;;;2.05;;
40588;SDS011;26297;49.450;6.640;2022-10-23T07:06:23;1.90;;;1.80;;
40588;SDS011;26297;49.450;6.640;2022-10-23T07:09:27;3.55;;;1.67;;
40588;SDS011;26297;49.450;6.640;2022-10-23T07:12:30;2.35;;;2.15;;
40588;SDS011;26297;49.450;6.640;2022-10-23T07:15:33;2.58;;;1.98;;
40588;SDS011;26297;49.450;6.640;2022-10-23T07:18:36;1.70;;;1.60;;
40588;SDS011;26297;49.450;6.640;2022-10-23T07:21:40;3.53;;;2.65;;
40588;SDS011;26297;49.450;6.640;2022-10-23T07:24:43;6.72;;;3.92;;
40588;SDS011;26297;49.450;6.640;2022-10-23T07:27:52;6.20;;;4.70;;
40588;SDS011;26297;49.450;6.640;2022-10-23T07:30:59;7.97;;;5.20;;
40588;SDS011;26297;49.450;6.640;2022-10-23T07:34:10;7.25;;;4.63;;
40588;SDS011;26297;49.450;6.640;2022-10-23T07:37:18;6.90;;;4.45;;
40588;SDS011;26297;49.450;6.640;2022-10-23T07:40:36;4.97;;;3.25;;
40588;SDS011;26297;49.450;6.640;2022-10-23T07:43:46;5.07;;;4.22;;
40588;SDS011;26297;49.450;6.640;2022-10-23T07:46:52;4.60;;;3.70;;
40588;SDS011;26297;49.450;6.640;2022-10-23T07:50:20;4.82;;;3.45;;
40588;SDS011;26297;49.450;6.640;2022-10-23T07:53:24;3.67;;;2.72;;
40588;SDS011;26297;49.450;6.640;2022-10-23T07:56:38;2.55;;;2.35;;
40588;SDS011;26297;49.450;6.640;2022-10-23T07:59:42;4.40;;;3.30;;
40588;SDS011;26297;49.450;6.640;2022-10-23T08:02:53;3.53;;;2.55;;
40588;SDS011;26297;49.450;6.640;2022-10-23T08:06:17;6.38;;;3.13;;
40588;SDS011;26297;49.450;6.640;2022-10-23T08:09:27;2.83;;;2.45;;
40588;SDS011;26297;49.450;6.640;2022-10-23T08:26:38;3.53;;;2.35;;
40588;SDS011;26297;49.450;6.640;2022-10-23T08:29:49;3.60;;;2.88;;
40588;SDS011;26297;49.450;6.640;2022-10-23T08:33:17;5.40;;;2.92;;
40588;SDS011;26297;49.450;6.640;2022-10-23T08:36:30;6.22;;;3.95;;
40588;SDS011;26297;49.450;6.640;2022-10-23T08:43:23;4.65;;;2.75;;
40588;SDS011;26297;49.450;6.640;2022-10-23T08:46:46;3.03;;;2.47;;
40588;SDS011;26297;49.450;6.640;2022-10-23T08:50:19;4.32;;;2.38;;
40588;SDS011;26297;49.450;6.640;2022-10-23T08:53:51;3.65;;;2.47;;
40588;SDS011;26297;49.450;6.640;2022-10-23T08:57:16;2.88;;;1.73;;
40588;SDS011;26297;49.450;6.640;2022-10-23T09:00:40;3.45;;;2.45;;
40588;SDS011;26297;49.450;6.640;2022-10-23T09:03:53;3.55;;;2.15;;
40588;SDS011;26297;49.450;6.640;2022-10-23T09:10:33;4.35;;;2.65;;
40588;SDS011;26297;49.450;6.640;2022-10-23T09:17:35;4.90;;;3.08;;
40588;SDS011;26297;49.450;6.640;2022-10-23T09:20:47;2.63;;;2.42;;
40588;SDS011;26297;49.450;6.640;2022-10-23T09:24:00;3.08;;;2.75;;
40588;SDS011;26297;49.450;6.640;2022-10-23T09:27:29;3.60;;;2.60;;
40588;SDS011;26297;49.450;6.640;2022-10-23T09:30:49;3.28;;;2.50;;
40588;SDS011;26297;49.450;6.640;2022-10-23T09:37:44;4.63;;;2.45;;
40588;SDS011;26297;49.450;6.640;2022-10-23T09:40:53;3.53;;;2.95;;
40588;SDS011;26297;49.450;6.640;2022-10-23T09:51:52;4.15;;;3.22;;
40588;SDS011;26297;49.450;6.640;2022-10-23T09:59:27;4.13;;;3.20;;
40588;SDS011;26297;49.450;6.640;2022-10-23T10:02:33;2.42;;;2.22;;
40588;SDS011;26297;49.450;6.640;2022-10-23T10:05:55;2.88;;;2.22;;
40588;SDS011;26297;49.450;6.640;2022-10-23T10:09:04;2.13;;;1.80;;
40588;SDS011;26297;49.450;6.640;2022-10-23T10:15:54;3.33;;;2.15;;
40588;SDS011;26297;49.450;6.640;2022-10-23T10:33:28;2.72;;;2.20;;
40588;SDS011;26297;49.450;6.640;2022-10-23T10:40:59;5.97;;;2.70;;
40588;SDS011;26297;49.450;6.640;2022-10-23T11:02:37;4.10;;;1.98;;
40588;SDS011;26297;49.450;6.640;2022-10-23T11:06:07;4.82;;;2.13;;
40588;SDS011;26297;49.450;6.640;2022-10-23T11:09:36;4.30;;;1.38;;
40588;SDS011;26297;49.450;6.640;2022-10-23T11:12:43;8.90;;;1.70;;
40588;SDS011;26297;49.450;6.640;2022-10-23T11:16:16;3.90;;;1.73;;
40588;SDS011;26297;49.450;6.640;2022-10-23T11:37:39;3.78;;;1.70;;
40588;SDS011;26297;49.450;6.640;2022-10-23T11:41:15;1.58;;;1.13;;
40588;SDS011;26297;49.450;6.640;2022-10-23T11:55:29;2.80;;;1.70;;
40588;SDS011;26297;49.450;6.640;2022-10-23T12:02:53;1.88;;;1.40;;
40588;SDS011;26297;49.450;6.640;2022-10-23T12:06:03;3.83;;;1.40;;
40588;SDS011;26297;49.450;6.640;2022-10-23T12:12:58;2.60;;;1.48;;
40588;SDS011;26297;49.450;6.640;2022-10-23T12:16:34;5.10;;;1.65;;
40588;SDS011;26297;49.450;6.640;2022-10-23T12:23:14;3.92;;;1.70;;
40588;SDS011;26297;49.450;6.640;2022-10-23T12:30:12;4.50;;;1.60;;
40588;SDS011;26297;49.450;6.640;2022-10-23T12:41:15;3.20;;;1.52;;
40588;SDS011;26297;49.450;6.640;2022-10-23T12:48:45;9.35;;;2.42;;
40588;SDS011;26297;49.450;6.640;2022-10-23T13:00:22;5.03;;;1.40;;
40588;SDS011;26297;49.450;6.640;2022-10-23T13:13:02;5.65;;;1.35;;
40588;SDS011;26297;49.450;6.640;2022-10-23T13:16:18;5.25;;;1.60;;
40588;SDS011;26297;49.450;6.640;2022-10-23T13:19:32;5.20;;;1.60;;
40588;SDS011;26297;49.450;6.640;2022-10-23T13:22:51;6.82;;;1.65;;
40588;SDS011;26297;49.450;6.640;2022-10-23T13:26:01;4.22;;;1.95;;
40588;SDS011;26297;49.450;6.640;2022-10-23T13:29:34;5.72;;;2.42;;
40588;SDS011;26297;49.450;6.640;2022-10-23T13:32:49;3.33;;;1.45;;
40588;SDS011;26297;49.450;6.640;2022-10-23T13:35:58;6.50;;;2.70;;
40588;SDS011;26297;49.450;6.640;2022-10-23T13:39:15;6.40;;;2.80;;
40588;SDS011;26297;49.450;6.640;2022-10-23T13:42:24;10.85;;;2.88;;
40588;SDS011;26297;49.450;6.640;2022-10-23T13:45:58;11.63;;;3.08;;
40588;SDS011;26297;49.450;6.640;2022-10-23T13:49:05;5.90;;;2.60;;
40588;SDS011;26297;49.450;6.640;2022-10-23T13:52:14;9.82;;;2.70;;
40588;SDS011;26297;49.450;6.640;2022-10-23T13:58:45;7.28;;;3.35;;
40588;SDS011;26297;49.450;6.640;2022-10-23T14:02:28;10.80;;;3.33;;
40588;SDS011;26297;49.450;6.640;2022-10-23T14:05:50;11.00;;;3.60;;
40588;SDS011;26297;49.450;6.640;2022-10-23T14:09:11;9.82;;;2.60;;
40588;SDS011;26297;49.450;6.640;2022-10-23T14:16:44;11.02;;;3.05;;
40588;SDS011;26297;49.450;6.640;2022-10-23T14:23:13;8.45;;;2.72;;
40588;SDS011;26297;49.450;6.640;2022-10-23T14:29:34;10.55;;;2.72;;
40588;SDS011;26297;49.450;6.640;2022-10-23T14:32:55;7.95;;;3.70;;
40588;SDS011;26297;49.450;6.640;2022-10-23T14:36:01;9.32;;;2.47;;
40588;SDS011;26297;49.450;6.640;2022-10-23T14:40:05;5.60;;;2.85;;
40588;SDS011;26297;49.450;6.640;2022-10-23T14:47:08;8.32;;;2.13;;
40588;SDS011;26297;49.450;6.640;2022-10-23T14:53:15;7.50;;;2.28;;
40588;SDS011;26297;49.450;6.640;2022-10-23T14:59:56;10.45;;;2.58;;
40588;SDS011;26297;49.450;6.640;2022-10-23T15:02:59;12.90;;;3.50;;
40588;SDS011;26297;49.450;6.640;2022-10-23T15:06:11;4.53;;;2.40;;
40588;SDS011;26297;49.450;6.640;2022-10-23T15:13:13;6.40;;;2.65;;
40588;SDS011;26297;49.450;6.640;2022-10-23T15:29:00;6.72;;;2.50;;
40588;SDS011;26297;49.450;6.640;2022-10-23T15:48:53;7.55;;;2.67;;
40588;SDS011;26297;49.450;6.640;2022-10-23T16:03:59;9.07;;;3.05;;
40588;SDS011;26297;49.450;6.640;2022-10-23T16:07:07;6.18;;;2.40;;
40588;SDS011;26297;49.450;6.640;2022-10-23T16:10:15;7.63;;;2.40;;
40588;SDS011;26297;49.450;6.640;2022-10-23T16:13:34;6.00;;;2.70;;
40588;SDS011;26297;49.450;6.640;2022-10-23T16:28:26;7.60;;;2.25;;
40588;SDS011;26297;49.450;6.640;2022-10-23T16:40:04;6.40;;;2.38;;
40588;SDS011;26297;49.450;6.640;2022-10-23T16:43:07;12.57;;;2.90;;
40588;SDS011;26297;49.450;6.640;2022-10-23T16:46:17;11.55;;;2.40;;
40588;SDS011;26297;49.450;6.640;2022-10-23T16:50:14;6.03;;;1.95;;
40588;SDS011;26297;49.450;6.640;2022-10-23T16:53:31;3.85;;;2.20;;
40588;SDS011;26297;49.450;6.640;2022-10-23T16:57:12;13.23;;;3.90;;
40588;SDS011;26297;49.450;6.640;2022-10-23T17:12:23;8.70;;;3.37;;
40588;SDS011;26297;49.450;6.640;2022-10-23T17:15:33;11.18;;;2.30;;
40588;SDS011;26297;49.450;6.640;2022-10-23T17:22:47;8.10;;;2.45;;
40588;SDS011;26297;49.450;6.640;2022-10-23T17:25:51;5.03;;;2.15;;
40588;SDS011;26297;49.450;6.640;2022-10-23T17:36:31;7.28;;;2.72;;
40588;SDS011;26297;49.450;6.640;2022-10-23T17:39:58;5.40;;;1.98;;
40588;SDS011;26297;49.450;6.640;2022-10-23T17:43:24;4.47;;;1.38;;
40588;SDS011;26297;49.450;6.640;2022-10-23T17:56:30;3.93;;;1.50;;
40588;SDS011;26297;49.450;6.640;2022-10-23T17:59:42;2.78;;;1.92;;
40588;SDS011;26297;49.450;6.640;2022-10-23T18:02:59;5.00;;;2.03;;
40588;SDS011;26297;49.450;6.640;2022-10-23T18:13:30;5.13;;;1.88;;
40588;SDS011;26297;49.450;6.640;2022-10-23T18:17:04;4.57;;;1.58;;
40588;SDS011;26297;49.450;6.640;2022-10-23T18:23:53;2.65;;;1.15;;
40588;SDS011;26297;49.450;6.640;2022-10-23T18:27:33;3.20;;;1.50;;
40588;SDS011;26297;49.450;6.640;2022-10-23T18:31:17;3.78;;;1.25;;
40588;SDS011;26297;49.450;6.640;2022-10-23T18:34:40;6.85;;;1.83;;
40588;SDS011;26297;49.450;6.640;2022-10-23T18:37:59;3.53;;;1.65;;
40588;SDS011;26297;49.450;6.640;2022-10-23T18:50:00;6.85;;;1.35;;
40588;SDS011;26297;49.450;6.640;2022-10-23T18:53:04;6.18;;;1.75;;
40588;SDS011;26297;49.450;6.640;2022-10-23T19:27:56;5.63;;;0.85;;
40588;SDS011;26297;49.450;6.640;2022-10-23T19:35:09;7.80;;;1.70;;
40588;SDS011;26297;49.450;6.640;2022-10-23T19:38:41;2.55;;;1.00;;
40588;SDS011;26297;49.450;6.640;2022-10-23T19:58:17;3.90;;;1.35;;
40588;SDS011;26297;49.450;6.640;2022-10-23T20:04:12;2.47;;;1.20;;
40588;SDS011;26297;49.450;6.640;2022-10-23T20:07:15;6.90;;;1.20;;
40588;SDS011;26297;49.450;6.640;2022-10-23T20:10:38;3.08;;;1.00;;
40588;SDS011;26297;49.450;6.640;2022-10-23T20:14:04;4.28;;;1.10;;
40588;SDS011;26297;49.450;6.640;2022-10-23T20:17:20;2.20;;;1.00;;
40588;SDS011;26297;49.450;6.640;2022-10-23T20:20:43;3.42;;;1.65;;
40588;SDS011;26297;49.450;6.640;2022-10-23T20:24:04;6.50;;;2.13;;
40588;SDS011;26297;49.450;6.640;2022-10-23T20:27:44;4.35;;;1.75;;
40588;SDS011;26297;49.450;6.640;2022-10-23T20:39:17;2.78;;;1.50;;
40588;SDS011;26297;49.450;6.640;2022-10-23T20:42:54;3.67;;;1.63;;
40588;SDS011;26297;49.450;6.640;2022-10-23T20:46:15;3.78;;;1.60;;
40588;SDS011;26297;49.450;6.640;2022-10-23T20:50:01;2.78;;;1.42;;
40588;SDS011;26297;49.450;6.640;2022-10-23T20:53:07;4.68;;;1.50;;
